Terminal Aerodrome Forecast
Issued by NWS

Home | Current Version | Previous Version | Text Only | Print | Product List | Glossary On
Versions: 1 2 3 4 5 6 7 8 9 10 11 12 13 14 15 16 17 18 19
000
FTAK31 PAJN 290500
TAFAWG
TAF
PAWG 290528Z 2906/3006 15003KT P6SM -SHRA FEW010 BKN040 OVC050
      TEMPO 2906/2910 00000KT 5SM -SHRA BR SCT005 BKN030 OVC040
     FM291500 13005KT P6SM VCSH BKN050 OVC070
     FM292200 12008KT P6SM BKN035 OVC060
      AMD LTD TO CLD VIS AND WIND 2906/2915=

USA.gov is the U.S. government's official web portal to all federal, state and local government web resources and services.